Time;durP1;ratioP1;P1;durP2;ratioP2;P2;SDS_P1;SDS_P2;PMS_P1;PMS_P2;Temp;Humidity;BMP_temperature;BMP_pressure;BME280_temperature;BME280_humidity;BME280_pressure;Samples;Min_cycle;Max_cycle;Signal;HPM_P1;HPM_P2
2022/03/21 00:01:41;;;;;;;25.02;12.10;;;;;;;-2.39;51.65;102676.84;4424619;32;20082;-74
2022/03/21 00:04:09;;;;;;;28.20;15.18;;;;;;;-2.34;51.63;102682.38;4424532;32;20127;-74
2022/03/21 00:06:36;;;;;;;32.58;16.25;;;;;;;-2.41;51.97;102676.72;4424382;32;20102;-74
2022/03/21 00:09:03;;;;;;;26.58;13.13;;;;;;;-2.55;53.47;102679.91;4424347;32;20421;-74
2022/03/21 00:11:32;;;;;;;21.27;10.40;;;;;;;-2.57;52.21;102678.91;4424249;32;20407;-74
2022/03/21 00:13:59;;;;;;;20.83;12.18;;;;;;;-2.61;51.89;102676.88;4424248;32;20105;-74
2022/03/21 00:16:27;;;;;;;27.67;12.37;;;;;;;-2.63;52.20;102678.44;4424321;32;20109;-74
2022/03/21 00:18:55;;;;;;;32.47;18.35;;;;;;;-2.65;52.36;102670.59;4424301;32;20089;-74
2022/03/21 00:21:22;;;;;;;86.00;44.35;;;;;;;-2.67;52.97;102673.81;4424198;32;20094;-74
2022/03/21 00:23:49;;;;;;;69.53;37.85;;;;;;;-2.70;52.71;102683.91;4424145;32;20535;-74
2022/03/21 00:26:17;;;;;;;36.63;18.98;;;;;;;-2.71;54.27;102671.78;4424073;32;20833;-74
2022/03/21 00:28:44;;;;;;;17.48;10.02;;;;;;;-2.53;51.87;102673.22;4424157;32;20412;-74
2022/03/21 00:31:11;;;;;;;24.63;11.93;;;;;;;-2.24;49.82;102677.13;4410075;32;20115;-74
2022/03/21 00:33:39;;;;;;;30.48;15.73;;;;;;;-2.11;49.41;102668.66;4424308;32;20151;-74
2022/03/21 00:36:08;;;;;;;206.70;83.12;;;;;;;-2.29;51.33;102670.72;4424394;32;20120;-74
2022/03/21 00:38:41;;;;;;;371.27;156.50;;;;;;;-2.26;50.39;102673.50;4424073;32;20528;-75
2022/03/21 00:41:09;;;;;;;334.73;135.60;;;;;;;-2.13;49.81;102673.69;4424267;32;20129;-74
2022/03/21 00:43:36;;;;;;;250.10;99.90;;;;;;;-2.11;49.60;102674.72;4424142;32;20085;-74
2022/03/21 00:46:03;;;;;;;184.57;77.70;;;;;;;-2.21;50.15;102672.22;4424070;32;20124;-75
2022/03/21 00:48:31;;;;;;;110.12;46.35;;;;;;;-2.17;50.00;102672.53;4424030;32;20156;-74
2022/03/21 00:50:59;;;;;;;173.80;75.32;;;;;;;-2.19;50.44;102668.03;4423940;32;20173;-75
2022/03/21 00:53:26;;;;;;;264.45;114.75;;;;;;;-2.14;49.60;102660.66;4423043;32;20150;-74
2022/03/21 00:55:54;;;;;;;151.48;67.75;;;;;;;-2.34;52.17;102664.28;4424084;32;20148;-74
2022/03/21 00:58:21;;;;;;;182.45;80.75;;;;;;;-2.30;50.49;102662.06;4424067;32;20085;-74
2022/03/21 01:00:48;;;;;;;143.15;62.70;;;;;;;-2.47;52.79;102663.38;4424036;32;20171;-74
2022/03/21 01:03:16;;;;;;;90.00;43.40;;;;;;;-2.61;53.80;102661.41;4423863;32;20173;-74
2022/03/21 01:05:44;;;;;;;70.10;32.70;;;;;;;-2.79;54.31;102659.94;4423841;32;20554;-74
2022/03/21 01:08:11;;;;;;;42.17;21.30;;;;;;;-2.83;53.46;102658.78;4423991;32;20115;-74
2022/03/21 01:10:38;;;;;;;30.70;16.20;;;;;;;-2.77;53.07;102664.44;4423976;32;20119;-74
2022/03/21 01:13:06;;;;;;;31.37;16.58;;;;;;;-2.75;53.09;102662.91;4423810;32;20512;-74
2022/03/21 01:15:33;;;;;;;27.08;14.30;;;;;;;-2.60;52.26;102660.59;4423864;32;20754;-74
2022/03/21 01:18:00;;;;;;;26.25;15.50;;;;;;;-2.57;52.28;102663.44;4424127;32;20162;-74
2022/03/21 01:20:27;;;;;;;25.30;15.43;;;;;;;-2.58;51.77;102651.31;4423959;32;20523;-74
2022/03/21 01:22:55;;;;;;;24.15;14.25;;;;;;;-2.51;51.41;102653.59;4423667;32;20135;-74
2022/03/21 01:25:23;;;;;;;22.08;13.90;;;;;;;-2.47;50.84;102655.62;4423652;32;20164;-74
2022/03/21 01:27:50;;;;;;;20.65;12.13;;;;;;;-2.51;50.81;102652.66;4423881;32;20089;-74
2022/03/21 01:30:17;;;;;;;16.98;9.82;;;;;;;-2.46;50.62;102657.41;4423809;32;20097;-74
2022/03/21 01:32:45;;;;;;;14.63;8.95;;;;;;;-2.30;49.88;102658.56;4423762;32;20442;-75
2022/03/21 01:35:15;;;;;;;16.30;9.25;;;;;;;-2.32;49.87;102655.00;4423708;32;20503;-74
2022/03/21 01:37:43;;;;;;;15.88;8.90;;;;;;;-2.38;50.29;102649.34;4423863;32;20477;-75
2022/03/21 01:40:11;;;;;;;16.40;8.95;;;;;;;-2.52;50.77;102649.19;4409135;32;20863;-74
2022/03/21 01:42:41;;;;;;;15.57;8.93;;;;;;;-2.56;50.78;102654.00;4423837;32;20437;-74
2022/03/21 01:45:08;;;;;;;14.65;8.32;;;;;;;-2.78;52.42;102652.34;4423852;32;20089;-74
2022/03/21 01:47:36;;;;;;;15.75;8.43;;;;;;;-2.90;52.64;102649.69;4423777;32;20373;-74
2022/03/21 01:50:04;;;;;;;14.43;7.55;;;;;;;-2.89;52.12;102646.34;4423706;32;20101;-74
2022/03/21 01:52:33;;;;;;;14.07;7.37;;;;;;;-2.98;52.43;102650.75;4423535;32;20101;-74
2022/03/21 01:56:02;;;;;;;12.07;6.87;;;;;;;-3.02;52.76;102643.56;4423813;32;20179;-75
2022/03/21 01:58:00;;;;;;;12.93;7.95;;;;;;;-2.98;53.23;102643.03;4410344;32;20089;-74
2022/03/21 02:00:28;;;;;;;15.07;7.95;;;;;;;-3.10;52.48;102646.31;4423625;32;20137;-74
2022/03/21 02:02:56;;;;;;;13.73;7.85;;;;;;;-3.16;53.08;102641.56;4423563;32;20157;-74
2022/03/21 02:05:23;;;;;;;15.40;8.48;;;;;;;-3.27;54.08;102643.28;4423087;32;20464;-75
2022/03/21 02:07:52;;;;;;;16.37;7.82;;;;;;;-3.26;54.71;102639.94;4409093;32;20093;-74
2022/03/21 02:10:19;;;;;;;14.40;7.30;;;;;;;-3.10;54.86;102642.06;4423576;32;20098;-74
2022/03/21 02:12:47;;;;;;;14.77;7.95;;;;;;;-3.00;53.74;102638.53;4423623;32;20097;-74
2022/03/21 02:15:14;;;;;;;15.65;7.53;;;;;;;-3.08;54.42;102643.06;4423578;32;20168;-74
2022/03/21 02:17:45;;;;;;;14.85;7.45;;;;;;;-3.27;54.99;102635.56;4423466;32;20089;-74
2022/03/21 02:20:20;;;;;;;15.07;8.35;;;;;;;-3.23;55.16;102636.69;4423513;32;20105;-74
2022/03/21 02:23:07;;;;;;;13.43;7.87;;;;;;;-3.28;55.51;102633.75;4423417;32;20157;-74
2022/03/21 02:25:36;;;;;;;13.15;7.43;;;;;;;-3.31;55.34;102640.34;4423373;32;20109;-74
2022/03/21 02:28:09;;;;;;;16.15;8.50;;;;;;;-3.46;56.65;102635.78;4423372;32;20858;-74
2022/03/21 02:30:41;;;;;;;23.73;8.52;;;;;;;-3.31;56.71;102630.03;4423387;32;20140;-74
2022/03/21 02:33:10;;;;;;;16.08;8.30;;;;;;;-3.29;56.72;102633.63;4423604;32;20132;-74
2022/03/21 02:35:39;;;;;;;15.93;8.45;;;;;;;-3.21;55.09;102624.84;4423517;32;20093;-74
2022/03/21 02:38:07;;;;;;;14.55;8.40;;;;;;;-3.29;57.18;102631.03;4423258;32;20094;-74
2022/03/21 02:40:35;;;;;;;16.67;9.07;;;;;;;-3.59;57.85;102627.81;4423303;32;20116;-74
2022/03/21 02:43:02;;;;;;;16.83;8.45;;;;;;;-3.65;57.66;102629.87;4423460;32;20120;-75
2022/03/21 02:45:30;;;;;;;20.27;8.75;;;;;;;-3.46;56.44;102622.87;4423276;32;20171;-74
2022/03/21 02:47:57;;;;;;;15.77;8.93;;;;;;;-3.48;57.27;102627.00;4423341;32;20085;-74
2022/03/21 02:50:40;;;;;;;16.67;8.45;;;;;;;-3.40;55.90;102625.03;4423263;32;20115;-74
2022/03/21 02:53:10;;;;;;;17.12;9.68;;;;;;;-3.51;57.15;102625.84;4423294;32;20414;-74
2022/03/21 02:55:41;;;;;;;16.70;8.27;;;;;;;-3.66;57.58;102625.50;4423121;32;20177;-74
2022/03/21 02:58:09;;;;;;;14.52;8.35;;;;;;;-3.76;57.89;102633.25;4423217;32;20173;-74
2022/03/21 03:00:36;;;;;;;16.40;8.15;;;;;;;-3.86;58.46;102629.03;4423114;32;20119;-74
2022/03/21 03:03:03;;;;;;;17.08;8.07;;;;;;;-3.91;57.66;102626.09;4423227;32;20641;-74
2022/03/21 03:05:31;;;;;;;17.05;8.13;;;;;;;-3.87;57.25;102627.22;4423100;32;20097;-74
2022/03/21 03:07:58;;;;;;;15.38;7.97;;;;;;;-3.85;57.83;102631.75;4408609;32;20086;-74
2022/03/21 03:10:25;;;;;;;17.12;8.77;;;;;;;-3.97;58.47;102638.44;4423075;32;20088;-74
2022/03/21 03:12:53;;;;;;;17.60;8.48;;;;;;;-4.10;58.71;102638.19;4422928;32;20097;-74
2022/03/21 03:15:20;;;;;;;18.37;8.38;;;;;;;-4.14;58.63;102634.47;4422956;32;20222;-75
2022/03/21 03:17:47;;;;;;;17.87;8.57;;;;;;;-4.21;59.06;102637.31;4421865;32;20085;-74
2022/03/21 03:20:15;;;;;;;20.80;10.35;;;;;;;-4.26;59.67;102640.28;4423060;32;20093;-74
2022/03/21 03:22:43;;;;;;;18.70;9.85;;;;;;;-4.25;60.89;102642.97;4422777;32;20124;-74
2022/03/21 03:25:11;;;;;;;23.02;13.10;;;;;;;-4.48;62.03;102635.91;4408462;32;20109;-74
2022/03/21 03:27:38;;;;;;;37.97;21.60;;;;;;;-4.53;62.67;102643.97;4422983;32;20077;-74
2022/03/21 03:30:06;;;;;;;55.33;25.05;;;;;;;-4.55;63.47;102638.72;4422734;32;20101;-74
2022/03/21 03:32:33;;;;;;;56.33;24.33;;;;;;;-4.66;66.36;102640.37;4422796;32;20098;-74
2022/03/21 03:35:01;;;;;;;46.95;21.95;;;;;;;-4.67;71.25;102642.81;4422772;32;20181;-74
2022/03/21 03:37:28;;;;;;;44.22;18.77;;;;;;;-4.68;73.83;102654.78;4422687;32;20086;-74
2022/03/21 03:39:55;;;;;;;32.90;16.45;;;;;;;-4.73;74.17;102650.03;4422583;32;20093;-74
2022/03/21 03:42:22;;;;;;;30.48;15.13;;;;;;;-4.73;74.17;102652.59;4422515;32;20446;-74
2022/03/21 03:44:49;;;;;;;31.58;15.20;;;;;;;-4.67;73.65;102653.09;4422697;32;20128;-74
2022/03/21 03:47:16;;;;;;;32.85;16.50;;;;;;;-4.64;73.55;102650.78;4422713;32;20089;-74
2022/03/21 03:49:44;;;;;;;35.67;14.90;;;;;;;-4.63;73.39;102658.66;4422515;32;20479;-74
2022/03/21 03:52:11;;;;;;;27.35;14.25;;;;;;;-4.73;72.13;102662.88;4422518;32;20446;-74
2022/03/21 03:54:38;;;;;;;33.55;14.77;;;;;;;-4.69;71.14;102658.13;4422493;32;20536;-74
2022/03/21 03:57:06;;;;;;;27.67;13.73;;;;;;;-4.41;68.51;102655.34;4422383;32;20142;-74
2022/03/21 03:59:33;;;;;;;29.02;12.40;;;;;;;-4.29;67.29;102655.47;4422463;32;20112;-74
2022/03/21 04:02:00;;;;;;;24.58;11.48;;;;;;;-4.14;65.47;102651.59;4422313;32;20165;-74
2022/03/21 04:04:28;;;;;;;24.55;10.82;;;;;;;-4.07;64.42;102658.16;4422244;32;20117;-74
2022/03/21 04:06:55;;;;;;;19.50;10.40;;;;;;;-4.28;65.38;102655.56;4422283;32;20132;-74
2022/03/21 04:09:22;;;;;;;22.40;10.13;;;;;;;-4.26;64.05;102655.72;4422585;32;20159;-74
2022/03/21 04:11:50;;;;;;;21.05;10.38;;;;;;;-4.43;64.75;102650.03;4422307;32;20113;-74
2022/03/21 04:14:17;;;;;;;21.90;10.43;;;;;;;-4.52;65.04;102651.84;4422146;32;20105;-74
2022/03/21 04:16:44;;;;;;;27.20;10.93;;;;;;;-4.32;62.95;102644.13;4422160;32;20077;-74
2022/03/21 04:19:13;;;;;;;17.25;9.75;;;;;;;-4.39;63.72;102656.34;4418874;32;105559;-74
2022/03/21 04:21:41;;;;;;;27.45;12.57;;;;;;;-4.20;61.82;102649.41;4422067;32;20094;-74
2022/03/21 04:24:08;;;;;;;22.83;11.40;;;;;;;-4.09;62.34;102652.88;4422074;32;20449;-74
2022/03/21 04:26:36;;;;;;;25.30;11.40;;;;;;;-3.98;61.21;102657.25;4421956;32;20489;-74
2022/03/21 04:29:04;;;;;;;22.25;11.23;;;;;;;-4.04;60.84;102661.00;4423368;32;20097;-74
2022/03/21 04:31:32;;;;;;;22.75;10.98;;;;;;;-4.03;60.99;102650.81;4424178;32;20124;-74
2022/03/21 04:34:00;;;;;;;22.98;9.98;;;;;;;-3.94;60.57;102656.72;4424269;32;20161;-74
2022/03/21 04:36:31;;;;;;;18.23;9.35;;;;;;;-3.81;59.46;102647.47;4424139;32;20096;-74
2022/03/21 04:38:58;;;;;;;19.70;9.60;;;;;;;-3.74;58.92;102654.91;4424093;32;20579;-74
2022/03/21 04:41:25;;;;;;;21.75;9.82;;;;;;;-3.79;58.99;102659.66;4424105;32;20120;-74
2022/03/21 04:43:52;;;;;;;22.40;9.68;;;;;;;-3.83;59.25;102656.72;4424135;32;20102;-74
2022/03/21 04:46:19;;;;;;;22.42;9.85;;;;;;;-3.78;59.02;102651.19;4424120;32;20085;-74
2022/03/21 04:48:47;;;;;;;23.38;10.05;;;;;;;-3.70;58.59;102656.97;4409860;32;20136;-74
2022/03/21 04:51:14;;;;;;;22.13;9.88;;;;;;;-3.90;59.56;102656.19;4424301;32;20093;-74
2022/03/21 04:53:42;;;;;;;26.30;9.45;;;;;;;-4.02;60.41;102662.03;4423966;32;20496;-74
2022/03/21 04:56:10;;;;;;;21.73;10.30;;;;;;;-4.04;60.77;102658.41;4424680;32;20156;-74
2022/03/21 04:58:37;;;;;;;19.35;9.52;;;;;;;-4.13;62.23;102662.03;4430882;32;20101;-75
2022/03/21 05:01:05;;;;;;;21.25;9.57;;;;;;;-4.13;62.04;102671.44;4431453;32;20177;-75
2022/03/21 05:03:33;;;;;;;21.92;9.77;;;;;;;-4.21;62.46;102664.72;4424596;32;20116;-74
2022/03/21 05:06:00;;;;;;;21.95;9.80;;;;;;;-4.05;61.20;102664.34;4424400;32;20082;-74
2022/03/21 05:08:28;;;;;;;24.73;10.38;;;;;;;-3.93;60.60;102671.41;4424361;32;20483;-74
2022/03/21 05:10:56;;;;;;;22.65;10.23;;;;;;;-3.92;61.02;102670.66;4424117;32;20097;-75
2022/03/21 05:13:23;;;;;;;20.62;10.30;;;;;;;-3.98;61.59;102666.66;4424411;32;20090;-75
2022/03/21 05:15:50;;;;;;;36.40;11.55;;;;;;;-3.87;61.78;102668.44;4424549;32;20115;-75
2022/03/21 05:18:18;;;;;;;24.70;10.80;;;;;;;-3.79;62.37;102669.06;4424631;32;20627;-74
2022/03/21 05:20:45;;;;;;;31.30;12.20;;;;;;;-3.67;62.20;102670.09;4424884;32;20120;-74
2022/03/21 05:31:31;;;;;;;25.77;10.25;;;;;;;-2.98;59.17;102678.22;4412696;32;20178;-75
2022/03/21 05:36:44;;;;;;;38.65;10.55;;;;;;;-2.96;59.93;102681.84;4424705;32;20131;-75
2022/03/21 05:39:12;;;;;;;27.83;11.30;;;;;;;-2.92;60.11;102692.53;4424400;32;20127;-74
2022/03/21 05:41:39;;;;;;;34.83;11.25;;;;;;;-2.86;60.26;102684.37;4410187;32;20124;-74
2022/03/21 05:44:08;;;;;;;32.03;10.60;;;;;;;-2.74;59.79;102687.00;4424618;32;20921;-74
2022/03/21 05:46:35;;;;;;;24.45;10.13;;;;;;;-2.67;60.21;102694.47;4424907;32;20147;-74
2022/03/21 05:49:04;;;;;;;38.55;9.45;;;;;;;-2.50;58.62;102695.78;4424934;32;20119;-75
2022/03/21 05:51:36;;;;;;;30.45;9.93;;;;;;;-2.45;58.44;102691.88;4423981;32;20097;-74
2022/03/21 05:54:05;;;;;;;24.85;10.90;;;;;;;-2.30;57.71;102689.56;4425069;32;20839;-74
2022/03/21 05:56:34;;;;;;;33.20;10.23;;;;;;;-2.14;56.79;102691.66;4424624;32;20187;-73
2022/03/21 06:01:50;;;;;;;23.02;9.57;;;;;;;-1.69;54.55;102683.91;4423917;32;20231;-75
2022/03/21 06:04:19;;;;;;;29.48;9.80;;;;;;;-1.50;54.08;102686.16;4422361;32;20573;-74
2022/03/21 06:06:46;;;;;;;48.63;11.05;;;;;;;-1.30;53.52;102690.22;4422874;32;20077;-74
2022/03/21 06:09:15;;;;;;;39.63;11.38;;;;;;;-1.13;54.22;102689.75;4423377;32;20105;-75
2022/03/21 06:11:48;;;;;;;32.50;13.15;;;;;;;-0.97;54.38;102697.81;4423361;32;20527;-74
2022/03/21 06:14:20;;;;;;;47.47;15.18;;;;;;;-0.67;54.14;102698.22;4422402;32;20412;-74
2022/03/21 06:16:48;;;;;;;37.10;14.63;;;;;;;-0.47;58.32;102701.28;4423696;32;20176;-74
2022/03/21 06:19:18;;;;;;;46.78;14.80;;;;;;;-0.25;57.26;102704.56;4424652;32;20168;-74
2022/03/21 06:21:46;;;;;;;29.02;14.23;;;;;;;-0.02;56.60;102704.47;4438987;32;20156;-75
2022/03/21 06:24:14;;;;;;;43.47;14.13;;;;;;;0.21;55.92;102706.03;4439472;32;20100;-75
2022/03/21 06:26:42;;;;;;;55.75;16.37;;;;;;;0.55;56.32;102708.25;4439474;32;20119;-75
2022/03/21 06:29:09;;;;;;;41.90;14.75;;;;;;;0.80;57.13;102702.97;4436601;32;20489;-75
2022/03/21 06:31:37;;;;;;;57.15;15.35;;;;;;;0.99;54.58;102704.16;4423991;32;20109;-74
2022/03/21 06:34:04;;;;;;;41.15;14.27;;;;;;;1.23;53.93;102699.62;4424622;32;20123;-74
2022/03/21 06:36:32;;;;;;;30.17;13.88;;;;;;;1.39;51.83;102699.81;4424257;32;20082;-75
2022/03/21 06:38:59;;;;;;;38.90;15.52;;;;;;;1.54;51.17;102707.66;4424249;32;20089;-75
2022/03/21 06:41:26;;;;;;;34.53;14.52;;;;;;;1.72;50.62;102703.56;4423881;32;20705;-76
2022/03/21 06:43:53;;;;;;;32.25;13.45;;;;;;;1.89;48.19;102702.91;4425798;32;20101;-74
2022/03/21 06:46:21;;;;;;;31.08;15.75;;;;;;;2.10;46.07;102698.09;4432172;32;20160;-75
2022/03/21 06:48:48;;;;;;;37.22;16.62;;;;;;;2.27;46.02;102706.00;4431039;32;20094;-75
2022/03/21 06:51:16;;;;;;;32.13;14.68;;;;;;;2.43;45.80;102708.69;4431125;32;20143;-75
2022/03/21 06:53:44;;;;;;;42.22;17.05;;;;;;;2.60;45.03;102712.28;4432037;32;20172;-75
2022/03/21 06:56:11;;;;;;;31.48;14.07;;;;;;;2.81;44.58;102705.69;4431022;32;20077;-75
2022/03/21 06:58:38;;;;;;;33.67;13.68;;;;;;;2.99;42.28;102713.66;4436373;32;20126;-76
2022/03/21 07:01:05;;;;;;;27.23;10.98;;;;;;;3.24;42.85;102718.53;4418286;32;20110;-76
2022/03/21 07:03:33;;;;;;;24.05;10.57;;;;;;;3.50;43.34;102713.88;4425486;32;20467;-77
2022/03/21 07:06:00;;;;;;;21.65;9.80;;;;;;;3.71;40.35;102717.63;4423005;32;20082;-77
2022/03/21 07:08:30;;;;;;;44.03;10.43;;;;;;;3.94;40.04;102707.50;4431372;32;20173;-75
2022/03/21 07:10:57;;;;;;;24.52;10.10;;;;;;;4.04;38.81;102715.00;4438311;32;20092;-75
2022/03/21 07:13:27;;;;;;;20.45;9.57;;;;;;;4.15;38.23;102718.16;4438186;32;20161;-75
2022/03/21 07:15:56;;;;;;;23.75;10.82;;;;;;;4.27;37.75;102721.37;4438298;32;20077;-75
2022/03/21 07:18:23;;;;;;;26.75;11.43;;;;;;;4.44;38.66;102722.25;4424310;32;20085;-75
2022/03/21 07:20:50;;;;;;;22.98;10.45;;;;;;;4.60;39.44;102723.94;4438321;32;20492;-74
2022/03/21 07:23:18;;;;;;;25.90;10.75;;;;;;;4.74;37.58;102729.00;4438819;32;20185;-75
2022/03/21 07:25:45;;;;;;;24.73;11.18;;;;;;;4.80;36.79;102728.41;4438879;32;20108;-76
2022/03/21 07:28:13;;;;;;;25.12;12.57;;;;;;;4.94;39.07;102726.47;4424792;32;20086;-76
2022/03/21 07:30:40;;;;;;;25.05;10.73;;;;;;;4.96;36.64;102727.44;4439063;32;20093;-75
2022/03/21 07:33:07;;;;;;;27.05;10.98;;;;;;;5.08;36.50;102730.63;4438756;32;20105;-74
2022/03/21 07:35:36;;;;;;;20.83;9.95;;;;;;;5.35;37.63;102719.72;4438943;32;20142;-76
2022/03/21 07:38:04;;;;;;;32.90;10.55;;;;;;;5.34;36.11;102723.16;4424637;32;20128;-76
2022/03/21 07:40:31;;;;;;;30.17;11.30;;;;;;;5.42;35.83;102725.31;4438908;32;20089;-75
2022/03/21 07:42:59;;;;;;;20.52;10.13;;;;;;;5.58;36.50;102721.66;4438894;32;20177;-76
2022/03/21 07:48:12;;;;;;;27.33;9.95;;;;;;;5.73;36.33;102725.00;4439020;32;20105;-75
2022/03/21 07:50:41;;;;;;;20.12;9.95;;;;;;;5.83;37.74;102725.41;4438357;32;20154;-76
2022/03/21 07:53:09;;;;;;;25.92;11.07;;;;;;;5.87;35.59;102724.72;4438222;32;20128;-76
2022/03/21 07:55:37;;;;;;;21.65;9.98;;;;;;;6.08;36.98;102730.94;4437807;32;20153;-76
2022/03/21 07:58:04;;;;;;;21.95;10.32;;;;;;;6.19;35.01;102732.31;4437599;32;20102;-76
2022/03/21 08:00:32;;;;;;;23.83;10.55;;;;;;;6.34;37.90;102729.47;4435232;32;20135;-77
2022/03/21 08:03:00;;;;;;;21.87;10.93;;;;;;;6.47;36.91;102728.28;4439032;32;21082;-76
2022/03/21 08:05:30;;;;;;;31.87;11.45;;;;;;;6.56;34.04;102720.78;4440534;32;20135;-76
2022/03/21 08:07:57;;;;;;;21.70;11.52;;;;;;;6.54;33.58;102725.06;4439865;32;20170;-76
2022/03/21 08:10:24;;;;;;;22.33;10.50;;;;;;;6.62;34.10;102728.00;4429073;32;20728;-76
2022/03/21 08:12:52;;;;;;;29.95;10.90;;;;;;;6.71;34.11;102731.00;4430151;32;20109;-75
2022/03/21 08:15:20;;;;;;;27.87;10.65;;;;;;;6.95;33.71;102725.88;4440637;32;20097;-75
2022/03/21 08:18:00;;;;;;;24.65;12.57;;;;;;;7.13;33.64;102729.22;4435600;32;20343;-76
2022/03/21 08:20:38;;;;;;;27.15;11.30;;;;;;;7.14;33.56;102732.78;4425140;32;20159;-75
2022/03/21 08:23:08;;;;;;;20.33;10.77;;;;;;;7.26;33.37;102725.37;4425742;32;20093;-75
2022/03/21 08:25:37;;;;;;;27.08;11.93;;;;;;;7.51;33.54;102724.59;4424709;32;20149;-77
2022/03/21 08:28:05;;;;;;;22.73;10.88;;;;;;;7.56;33.29;102725.69;4424970;32;20848;-74
2022/03/21 08:30:35;;;;;;;26.40;10.32;;;;;;;7.73;32.71;102720.16;4425056;32;20171;-74
2022/03/21 08:33:08;;;;;;;21.42;11.38;;;;;;;7.88;31.50;102716.38;4424210;32;20788;-76
2022/03/21 08:35:38;;;;;;;17.77;10.90;;;;;;;7.91;32.15;102712.94;4409987;32;20104;-76
2022/03/21 08:38:07;;;;;;;25.67;11.20;;;;;;;7.96;31.67;102711.41;4424810;32;20097;-75
2022/03/21 08:40:36;;;;;;;24.60;11.80;;;;;;;8.19;32.74;102709.56;4424901;32;20105;-76
2022/03/21 08:43:06;;;;;;;22.80;11.63;;;;;;;8.48;32.44;102710.63;4438492;32;20101;-76
2022/03/21 08:45:34;;;;;;;24.75;12.05;;;;;;;8.68;31.55;102705.13;4440361;32;20117;-76
2022/03/21 08:48:02;;;;;;;23.25;11.10;;;;;;;8.70;29.74;102699.09;4440261;32;20124;-74
2022/03/21 08:50:30;;;;;;;37.17;11.82;;;;;;;8.79;31.22;102696.75;4439788;32;20113;-76
2022/03/21 08:52:58;;;;;;;21.48;11.27;;;;;;;8.86;32.34;102695.22;4439642;32;20100;-75
2022/03/21 08:55:26;;;;;;;34.15;12.75;;;;;;;9.16;30.57;102694.41;4421063;32;20081;-74
2022/03/21 08:57:54;;;;;;;22.67;11.23;;;;;;;9.25;30.52;102695.56;4435225;32;20135;-74
2022/03/21 09:00:21;;;;;;;26.58;11.40;;;;;;;9.23;32.47;102692.00;4425532;32;20158;-74
2022/03/21 09:02:54;;;;;;;37.72;12.37;;;;;;;9.49;35.04;102692.78;4439963;32;20113;-74
2022/03/21 09:05:22;;;;;;;23.05;11.15;;;;;;;9.77;29.87;102688.31;4439700;32;20073;-75
2022/03/21 09:07:49;;;;;;;26.98;12.80;;;;;;;9.94;31.79;102694.06;4438652;32;20166;-74
2022/03/21 09:10:18;;;;;;;26.35;13.48;;;;;;;10.00;30.71;102679.34;4422448;32;20100;-74
2022/03/21 09:12:46;;;;;;;36.53;15.13;;;;;;;10.23;28.97;102687.84;4422440;32;20483;-74
2022/03/21 09:15:13;;;;;;;29.55;14.90;;;;;;;10.29;28.24;102680.13;4435409;32;20085;-74
2022/03/21 09:17:41;;;;;;;28.95;11.80;;;;;;;10.40;28.72;102682.16;4435362;32;20162;-73
2022/03/21 09:20:09;;;;;;;21.67;11.82;;;;;;;10.63;28.38;102682.72;4421027;32;20131;-72
2022/03/21 09:22:36;;;;;;;23.42;12.80;;;;;;;10.65;28.82;102681.03;4433921;32;20105;-72
2022/03/21 09:25:04;;;;;;;22.17;11.40;;;;;;;10.69;27.34;102673.22;4434380;32;20144;-71
2022/03/21 09:27:31;;;;;;;35.67;11.63;;;;;;;10.95;28.79;102676.50;4434722;32;20765;-72
2022/03/21 09:29:58;;;;;;;24.37;10.90;;;;;;;11.18;27.88;102679.62;4435072;32;20528;-72
2022/03/21 09:32:25;;;;;;;24.75;11.38;;;;;;;11.18;26.37;102670.84;4437040;32;20108;-72
2022/03/21 09:34:53;;;;;;;19.20;10.50;;;;;;;11.23;26.26;102666.53;4438422;32;20085;-72
2022/03/21 09:37:20;;;;;;;25.50;10.25;;;;;;;11.27;25.48;102664.84;4439100;32;20084;-72
2022/03/21 09:39:49;;;;;;;23.98;10.75;;;;;;;11.47;25.84;102666.19;4439114;32;20190;-72
2022/03/21 09:42:16;;;;;;;17.25;9.40;;;;;;;11.62;25.90;102661.19;4439361;32;20123;-72
2022/03/21 09:44:43;;;;;;;14.70;8.10;;;;;;;11.78;26.00;102659.78;4439019;32;20073;-72
2022/03/21 09:49:58;;;;;;;;;;;;;;;11.79;27.83;102655.38;4439564;32;20173;-72
2022/03/21 09:52:29;;;;;;;13.10;8.00;;;;;;;12.12;25.63;102658.69;4439001;32;19996;-72
2022/03/21 09:54:56;;;;;;;19.15;9.70;;;;;;;11.85;24.87;102659.06;4438248;32;20263;-72
2022/03/21 09:57:26;;;;;;;16.02;9.43;;;;;;;12.15;25.93;102658.72;4439135;32;20177;-72
2022/03/21 09:59:55;;;;;;;15.35;9.32;;;;;;;12.30;23.62;102658.13;4438995;32;20451;-72
2022/03/21 10:02:22;;;;;;;16.37;9.60;;;;;;;12.41;26.38;102660.97;4439042;32;20101;-72
2022/03/21 10:04:50;;;;;;;15.52;9.68;;;;;;;12.48;25.61;102660.19;4438838;32;20082;-73
2022/03/21 10:07:25;;;;;;;18.08;10.05;;;;;;;12.80;22.86;102655.41;4438893;32;20089;-73
2022/03/21 10:10:16;;;;;;;21.95;9.90;;;;;;;12.77;23.47;102643.91;4438977;32;20082;-73
2022/03/21 10:12:44;;;;;;;17.08;10.05;;;;;;;12.92;25.13;102650.28;4439250;32;20097;-73
2022/03/21 10:15:11;;;;;;;15.70;9.35;;;;;;;12.84;24.61;102646.66;4438934;32;20104;-72
2022/03/21 10:17:39;;;;;;;16.35;9.60;;;;;;;13.09;23.24;102639.06;4438872;32;20443;-73
2022/03/21 10:20:10;;;;;;;13.88;9.02;;;;;;;13.31;23.56;102635.88;4438829;32;20488;-73
2022/03/21 10:22:43;;;;;;;20.02;10.80;;;;;;;13.50;22.69;102630.78;4438934;32;20140;-73
2022/03/21 10:25:16;;;;;;;33.95;10.32;;;;;;;13.72;22.87;102634.59;4438335;32;20115;-73
2022/03/21 10:27:45;;;;;;;25.62;9.52;;;;;;;13.76;22.63;102626.69;4423981;32;20085;-73
2022/03/21 10:30:22;;;;;;;23.40;9.73;;;;;;;13.67;22.31;102626.56;4438956;32;20161;-73
2022/03/21 10:32:57;;;;;;;19.23;10.15;;;;;;;14.07;23.54;102619.06;4437459;32;20092;-73
2022/03/21 10:35:30;;;;;;;16.50;8.88;;;;;;;14.28;21.93;102627.19;4428487;32;20111;-73
2022/03/21 10:38:00;;;;;;;16.42;9.00;;;;;;;14.40;21.65;102620.22;4438492;32;20164;-73
2022/03/21 10:40:33;;;;;;;20.35;9.55;;;;;;;14.22;19.84;102620.94;4429678;32;20097;-73
2022/03/21 10:43:05;;;;;;;17.17;8.95;;;;;;;13.53;22.24;102607.00;4431598;32;20196;-73
2022/03/21 10:45:41;;;;;;;20.00;9.32;;;;;;;14.09;21.35;102612.00;4438583;32;20093;-73
2022/03/21 10:48:17;;;;;;;16.05;8.73;;;;;;;14.56;20.83;102606.25;4438149;32;20747;-73
2022/03/21 10:50:48;;;;;;;23.12;8.65;;;;;;;14.26;19.77;102597.13;4438343;32;20097;-73
2022/03/21 10:53:15;;;;;;;53.45;11.12;;;;;;;14.85;20.42;102597.56;4427252;32;20559;-74
2022/03/21 10:55:47;;;;;;;16.42;8.70;;;;;;;14.89;19.45;102592.28;4423218;32;20210;-73
2022/03/21 10:58:33;;;;;;;17.02;8.85;;;;;;;14.80;20.05;102589.56;4409202;32;20184;-75
2022/03/21 11:01:24;;;;;;;21.58;9.30;;;;;;;15.15;22.30;102596.84;4423702;32;20093;-74
2022/03/21 11:03:57;;;;;;;15.98;9.98;;;;;;;15.49;20.67;102582.81;4423771;32;20094;-74
2022/03/21 11:06:24;;;;;;;27.62;8.90;;;;;;;16.39;18.82;102584.69;4423633;32;20129;-75
2022/03/21 11:08:52;;;;;;;16.27;9.23;;;;;;;17.10;16.95;102582.81;4423691;32;20651;-74
2022/03/21 11:11:21;;;;;;;16.58;8.77;;;;;;;18.20;17.61;102583.00;4423850;32;20150;-74
2022/03/21 11:13:50;;;;;;;13.75;8.95;;;;;;;19.50;17.23;102571.78;4425626;32;20152;-73
2022/03/21 11:16:18;;;;;;;19.70;8.90;;;;;;;20.33;14.89;102567.81;4425036;32;20158;-74
2022/03/21 11:18:47;;;;;;;15.25;8.63;;;;;;;18.83;16.08;102562.84;4425468;32;20097;-73
2022/03/21 11:21:19;;;;;;;13.68;8.85;;;;;;;20.05;14.74;102551.34;4430544;32;20093;-75
2022/03/21 11:23:48;;;;;;;13.15;9.15;;;;;;;20.46;14.36;102550.62;4429609;32;20131;-74
2022/03/21 11:26:53;;;;;;;18.23;9.50;;;;;;;21.35;14.13;102545.31;4437071;32;20092;-74
2022/03/21 11:29:32;;;;;;;15.57;10.10;;;;;;;21.39;15.16;102544.31;4430296;32;20120;-75
2022/03/21 11:32:13;;;;;;;15.13;10.55;;;;;;;21.61;14.67;102555.44;4423391;32;20132;-75
2022/03/21 11:34:59;;;;;;;21.10;9.63;;;;;;;22.09;14.48;102550.66;4425060;32;20167;-74
2022/03/21 11:37:30;;;;;;;14.32;9.68;;;;;;;21.61;13.43;102542.88;4430429;32;20085;-74
2022/03/21 11:40:32;;;;;;;23.52;10.30;;;;;;;21.03;14.54;102543.31;4432411;32;20153;-73
2022/03/21 11:43:15;;;;;;;15.45;10.45;;;;;;;21.48;14.25;102536.94;4436375;32;20166;-75